Terminal Aerodrome Forecast
Issued by NWS

Home | Current Version | Previous Version | Text Only | Print | Product List | Glossary Off
Versions: 1 2 3 4 5 6 7 8 9 10 11 12 13 14

000
FTUS42 KMHX 271120
TAFISO
TAF
KISO 271120Z 2712/2812 VRB04KT 4SM BR BKN003
      TEMPO 2713/2714 6SM BR SCT003
     FM271400 18011KT P6SM VCSH SCT030 BKN050
     FM271800 19011G19KT P6SM VCTS BKN035CB
     FM280000 21010KT P6SM VCTS BKN030CB
      AMD LTD TO CLD VIS AND WIND=

USA.gov is the U.S. government's official web portal to all federal, state and local government web resources and services.